This is the latest recevied weather packets stored in our database for station/object OE-11213. If no packets are shown the sender has not sent any weather packets the latest 10 day(s).
| Time | Temp. | Humidity | Pressure | Rain* | Wind** | Luminosity | Snow |
|---|---|---|---|---|---|---|---|
| 1788261104 | 21.67° C | 71% | 1020.5 hPa | 0 mm | - | 660 W/m² | - |
| 1788260731 | 21.67° C | 68% | 1020.7 hPa | 0 mm | - | 413 W/m² | - |
| 1788260130 | 21.67° C | 68% | 1020.8 hPa | 0 mm | - | 638 W/m² | - |
| 1788259304 | 21.11° C | 70% | 1021 hPa | 0 mm | - | 399 W/m² | - |
| 1788258930 | 20.56° C | 69% | 1021.1 hPa | 0 mm | - | 457 W/m² | - |
| 1788258331 | 21.67° C | 66% | 1021.1 hPa | 0 mm | - | 856 W/m² | - |
| 1788257504 | 21.11° C | 68% | 1021.2 hPa | 0 mm | - | 769 W/m² | - |
| 1788257131 | 20° C | 69% | 1021.4 hPa | 0 mm | - | 776 W/m² | - |
| 1788256531 | 20° C | 70% | 1021.7 hPa | 0 mm | - | 442 W/m² | - |
| 1788255704 | 20.56° C | 71% | 1021.6 hPa | 0 mm | - | 660 W/m² | - |
| 1788255331 | 20° C | 70% | 1021.7 hPa | 0 mm | - | 544 W/m² | - |
| 1788254731 | 20.56° C | 68% | 1021.6 hPa | 0 mm | - | 718 W/m² | - |
| 1788253904 | 20.56° C | 72% | 1021.7 hPa | 0 mm | - | 703 W/m² | - |
| 1788253531 | 20° C | 71% | 1022 hPa | 0 mm | - | 268 W/m² | - |
| 1788252930 | 20° C | 67% | 1021.9 hPa | 0 mm | - | 326 W/m² | - |
| 1788252104 | 20° C | 69% | 1021.9 hPa | 0 mm | - | 573 W/m² | - |
| 1788251731 | 20.56° C | 65% | 1021.8 hPa | 0 mm | - | 703 W/m² | - |
| 1788251131 | 20.56° C | 67% | 1021.8 hPa | 0 mm | - | 616 W/m² | - |
| 1788250531 | 20° C | 68% | 1021.7 hPa | 0 mm | - | 573 W/m² | - |
| 1788249931 | 20° C | 70% | 1021.8 hPa | 0 mm | - | 566 W/m² | - |
| 1788249331 | 19.44° C | 71% | 1021.8 hPa | 0 mm | - | 551 W/m² | - |
| 1788248731 | 19.44° C | 72% | 1021.7 hPa | 0 mm | - | 508 W/m² | - |
| 1788248131 | 19.44° C | 72% | 1021.9 hPa | 0 mm | - | 457 W/m² | - |
| 1788247531 | 18.89° C | 74% | 1022.1 hPa | 0 mm | - | 413 W/m² | - |
| 1788246931 | 18.33° C | 76% | 1022 hPa | 0 mm | - | 471 W/m² | - |
* Rain latest hour (hover to see other rain measurements)
** Current wind speed in m/s (hover to see current wind gust speed)